Time;durP1;ratioP1;P1;durP2;ratioP2;P2;SDS_P1;SDS_P2;PMS_P1;PMS_P2;Temp;Humidity;BMP_temperature;BMP_pressure;BME280_temperature;BME280_humidity;BME280_pressure;Samples;Min_cycle;Max_cycle;Signal;HPM_P1;HPM_P2
2023/02/12 00:00:15;;;;;;;29.73;20.60;;;;;;;5.63;66.13;98584.19;5016977;28;20148;-81
2023/02/12 00:02:43;;;;;;;32.90;19.85;;;;;;;5.61;66.69;98586.06;5017327;28;20054;-85
2023/02/12 00:05:12;;;;;;;30.63;20.30;;;;;;;5.60;66.66;98574.88;5017052;28;20145;-85
2023/02/12 00:07:39;;;;;;;28.02;19.25;;;;;;;5.62;68.10;98575.59;5016375;28;20050;-87
2023/02/12 00:10:08;;;;;;;28.17;20.50;;;;;;;5.68;68.50;98577.75;5016070;28;20488;-81
2023/02/12 00:12:35;;;;;;;27.70;19.80;;;;;;;5.71;67.94;98580.16;5016410;28;20049;-77
2023/02/12 00:15:03;;;;;;;31.30;21.17;;;;;;;5.72;68.44;98574.03;5016010;28;20496;-80
2023/02/12 00:17:31;;;;;;;30.98;20.33;;;;;;;5.73;67.43;98575.72;5016294;28;20049;-78
2023/02/12 00:19:59;;;;;;;26.27;18.50;;;;;;;5.71;67.81;98571.56;5015473;28;20057;-85
2023/02/12 00:22:28;;;;;;;28.08;19.48;;;;;;;5.73;68.51;98569.72;5016726;28;20133;-84
2023/02/12 00:24:56;;;;;;;29.60;19.98;;;;;;;5.74;68.10;98564.41;5018966;28;20042;-82
2023/02/12 00:27:23;;;;;;;26.88;18.42;;;;;;;5.76;67.41;98572.09;5019303;28;20046;-80
2023/02/12 00:29:51;;;;;;;26.85;18.65;;;;;;;5.77;67.29;98572.00;5018109;28;20046;-86
2023/02/12 00:32:19;;;;;;;28.05;19.25;;;;;;;5.77;66.76;98572.00;5018888;28;20149;-81
2023/02/12 00:34:46;;;;;;;31.55;19.65;;;;;;;5.74;66.41;98567.00;5018770;28;20114;-80
2023/02/12 00:37:14;;;;;;;30.00;19.35;;;;;;;5.66;66.58;98574.44;5018230;28;20061;-78
2023/02/12 00:39:43;;;;;;;26.40;18.58;;;;;;;5.61;67.12;98576.53;5017997;28;20057;-83
2023/02/12 00:42:11;;;;;;;28.33;19.83;;;;;;;5.58;66.97;98581.91;5018424;28;20049;-81
2023/02/12 00:44:39;;;;;;;29.40;20.35;;;;;;;5.55;67.00;98587.28;5017866;28;20479;-81
2023/02/12 00:47:06;;;;;;;30.45;19.92;;;;;;;5.52;66.81;98588.31;5017227;28;20085;-85
2023/02/12 00:49:34;;;;;;;29.25;20.38;;;;;;;5.51;67.67;98578.06;5017317;28;20188;-80
2023/02/12 00:52:03;;;;;;;28.80;19.30;;;;;;;5.49;67.25;98590.28;5018137;28;20068;-79
2023/02/12 00:54:32;;;;;;;28.17;19.63;;;;;;;5.50;68.69;98590.16;5017643;28;20049;-81
2023/02/12 00:57:01;;;;;;;26.02;19.75;;;;;;;5.55;69.18;98592.44;5017370;28;20229;-85
2023/02/12 00:59:29;;;;;;;31.23;21.40;;;;;;;5.56;68.00;98588.94;5016774;28;20069;-81
2023/02/12 01:01:57;;;;;;;30.05;21.27;;;;;;;5.54;67.63;98583.03;5017271;28;20050;-79
2023/02/12 01:04:24;;;;;;;28.85;20.95;;;;;;;5.50;67.95;98582.41;5017268;28;20061;-79
2023/02/12 01:06:52;;;;;;;32.03;21.08;;;;;;;5.51;67.56;98588.41;5017511;28;20045;-78
2023/02/12 01:09:19;;;;;;;32.67;22.77;;;;;;;5.49;67.40;98579.94;5017313;28;20443;-78
2023/02/12 01:11:47;;;;;;;31.15;21.67;;;;;;;5.48;67.86;98586.03;5017483;28;20046;-81
2023/02/12 01:14:16;;;;;;;32.97;22.00;;;;;;;5.44;68.02;98585.38;5017066;28;20092;-80
2023/02/12 01:16:43;;;;;;;34.80;22.23;;;;;;;5.42;67.69;98578.66;5017701;28;20050;-79
2023/02/12 01:19:12;;;;;;;33.83;22.58;;;;;;;5.37;67.93;98590.13;5016201;28;20116;-78
2023/02/12 01:21:40;;;;;;;34.92;23.65;;;;;;;5.37;68.65;98589.31;5017052;28;20073;-77
2023/02/12 01:24:08;;;;;;;33.13;21.33;;;;;;;5.40;69.13;98593.47;5016779;28;20124;-78
2023/02/12 01:26:36;;;;;;;30.13;20.63;;;;;;;5.44;69.58;98581.97;5016710;28;20053;-81
2023/02/12 01:29:06;;;;;;;34.63;22.00;;;;;;;5.46;69.15;98586.13;5015818;28;20042;-77
2023/02/12 01:31:37;;;;;;;31.67;21.08;;;;;;;5.44;68.38;98582.81;5016241;28;20050;-78
2023/02/12 01:34:07;;;;;;;36.43;23.20;;;;;;;5.41;68.60;98585.59;5015737;28;20108;-78
2023/02/12 01:36:35;;;;;;;29.67;21.73;;;;;;;5.38;68.66;98591.00;5016184;28;20143;-78
2023/02/12 01:39:04;;;;;;;32.63;21.77;;;;;;;5.39;69.11;98581.47;5015155;28;20140;-77
2023/02/12 01:41:34;;;;;;;35.95;24.08;;;;;;;5.39;68.99;98589.22;5015105;28;20049;-78
2023/02/12 01:44:16;;;;;;;30.30;21.23;;;;;;;5.37;69.76;98584.97;5014899;28;20073;-81
2023/02/12 01:46:47;;;;;;;34.70;22.65;;;;;;;5.39;69.28;98592.63;5015644;28;20141;-80
2023/02/12 01:49:20;;;;;;;33.08;22.27;;;;;;;5.39;69.15;98595.22;5014281;28;20050;-77
2023/02/12 01:51:50;;;;;;;37.70;23.40;;;;;;;5.36;69.02;98583.31;5014913;28;20496;-78
2023/02/12 01:54:21;;;;;;;33.70;22.58;;;;;;;5.34;68.83;98581.75;5014983;28;20058;-78
2023/02/12 01:56:49;;;;;;;37.30;23.58;;;;;;;5.33;69.12;98582.69;5014906;28;20042;-78
2023/02/12 01:59:18;;;;;;;36.45;24.77;;;;;;;5.32;69.29;98584.44;5014752;28;20050;-81
2023/02/12 02:01:47;;;;;;;37.50;24.88;;;;;;;5.29;69.42;98582.06;5015002;28;20132;-78
2023/02/12 02:04:19;;;;;;;39.35;24.70;;;;;;;5.29;69.67;98584.66;5028310;22;20045;-77
2023/02/12 02:06:50;;;;;;;36.95;24.67;;;;;;;5.28;69.44;98582.97;5012455;28;20119;-77
2023/02/12 02:09:19;;;;;;;40.53;25.92;;;;;;;5.26;69.73;98584.00;5012356;28;20069;-77
2023/02/12 02:14:32;;;;;;;44.42;25.98;;;;;;;5.22;70.16;98570.44;5013150;28;20046;-77
2023/02/12 02:17:17;;;;;;;42.05;27.25;;;;;;;5.21;71.32;98571.38;5013057;28;20047;-77
2023/02/12 02:20:19;;;;;;;42.72;26.90;;;;;;;5.20;71.10;98577.47;5012309;28;20129;-77
2023/02/12 02:22:55;;;;;;;46.58;29.65;;;;;;;5.15;70.89;98576.94;5013099;28;20085;-77
2023/02/12 02:25:40;;;;;;;46.33;29.38;;;;;;;5.12;72.67;98574.56;5012807;28;20050;-77
2023/02/12 02:28:26;;;;;;;43.20;28.40;;;;;;;5.07;72.16;98566.25;5012139;28;20061;-77
2023/02/12 02:30:59;;;;;;;48.63;29.80;;;;;;;5.03;72.19;98559.63;5012906;28;20057;-77
2023/02/12 02:33:36;;;;;;;48.85;30.67;;;;;;;5.03;72.63;98565.63;5012936;28;20058;-77
2023/02/12 02:36:14;;;;;;;48.28;30.33;;;;;;;5.03;72.92;98565.63;5012875;28;20072;-77
2023/02/12 02:38:46;;;;;;;47.20;29.55;;;;;;;5.03;72.94;98567.38;5011903;28;20052;-77
2023/02/12 02:41:21;;;;;;;46.22;30.13;;;;;;;5.03;72.78;98564.78;5012727;28;20129;-77
2023/02/12 02:43:50;;;;;;;52.75;31.50;;;;;;;4.98;73.24;98549.56;5012777;28;20050;-77
2023/02/12 02:46:27;;;;;;;47.60;29.45;;;;;;;4.94;73.55;98559.31;5012900;28;20052;-77
2023/02/12 02:48:59;;;;;;;58.75;32.03;;;;;;;4.92;73.60;98550.81;5012044;28;20073;-77
2023/02/12 02:51:30;;;;;;;52.00;29.35;;;;;;;4.90;74.16;98551.84;5012508;28;20563;-77
2023/02/12 02:54:05;;;;;;;54.63;31.65;;;;;;;4.88;74.03;98551.09;5012687;28;20053;-77
2023/02/12 02:56:36;;;;;;;47.70;31.13;;;;;;;4.90;74.66;98555.25;5012650;28;20072;-77
2023/02/12 02:59:07;;;;;;;53.17;30.75;;;;;;;4.90;74.48;98557.00;5012160;28;20054;-77
2023/02/12 03:01:42;;;;;;;47.20;30.30;;;;;;;4.90;74.88;98555.25;5012505;28;20525;-77
2023/02/12 03:04:14;;;;;;;53.63;30.90;;;;;;;4.87;74.28;98550.25;5012143;28;20077;-77
2023/02/12 03:06:47;;;;;;;54.15;32.42;;;;;;;4.84;74.44;98555.63;5012475;28;20050;-77
2023/02/12 03:09:21;;;;;;;47.20;30.20;;;;;;;4.80;74.77;98548.16;5012517;28;20060;-77
2023/02/12 03:11:49;;;;;;;54.97;29.60;;;;;;;4.79;74.38;98551.66;5016094;28;20049;-77
2023/02/12 03:14:23;;;;;;;48.33;30.38;;;;;;;4.75;75.32;98551.88;5016019;28;20077;-76
2023/02/12 03:16:58;;;;;;;50.58;30.75;;;;;;;4.79;75.26;98549.94;5015847;28;20046;-77
2023/02/12 03:19:29;;;;;;;52.95;30.77;;;;;;;4.79;75.19;98560.28;5015115;28;20053;-77
2023/02/12 03:22:01;;;;;;;47.70;29.73;;;;;;;4.79;75.18;98559.41;5015910;28;20547;-78
2023/02/12 03:24:34;;;;;;;55.40;31.60;;;;;;;4.80;75.30;98572.25;5015781;28;20508;-77
2023/02/12 03:27:07;;;;;;;51.67;31.42;;;;;;;4.79;75.13;98562.84;5015694;28;20068;-77
2023/02/12 03:29:34;;;;;;;53.90;32.53;;;;;;;4.79;74.72;98570.63;5014425;28;20050;-77
2023/02/12 03:32:15;;;;;;;54.65;30.45;;;;;;;4.78;75.24;98571.53;5015638;28;20690;-77
2023/02/12 03:34:50;;;;;;;54.83;31.77;;;;;;;4.77;75.04;98567.28;5015576;28;20473;-77
2023/02/12 03:37:21;;;;;;;47.90;30.30;;;;;;;4.76;75.03;98570.78;5015415;28;20058;-77
2023/02/12 03:39:55;;;;;;;53.85;31.50;;;;;;;4.80;75.65;98574.03;5014781;28;20056;-77
2023/02/12 03:42:32;;;;;;;51.90;31.92;;;;;;;4.82;75.57;98578.16;5015324;28;20141;-77
2023/02/12 03:45:04;;;;;;;44.83;29.58;;;;;;;4.87;75.00;98570.13;5015210;28;20504;-77
2023/02/12 03:47:43;;;;;;;49.85;30.23;;;;;;;4.90;75.02;98575.94;5015056;28;20500;-77
2023/02/12 03:50:16;;;;;;;53.25;29.52;;;;;;;4.92;75.07;98579.25;5015293;28;20140;-77
2023/02/12 03:52:45;;;;;;;49.05;31.38;;;;;;;4.93;74.56;98580.06;5015339;28;20522;-77
2023/02/12 03:55:13;;;;;;;58.40;33.03;;;;;;;4.93;74.84;98586.06;5014985;28;20050;-77
2023/02/12 03:57:44;;;;;;;56.83;35.03;;;;;;;4.91;74.86;98587.09;5015210;28;20053;-77
2023/02/12 04:00:15;;;;;;;55.58;33.03;;;;;;;4.91;74.90;98582.75;5014844;28;20516;-77
2023/02/12 04:02:45;;;;;;;56.80;33.38;;;;;;;4.93;75.22;98586.06;5014984;28;20054;-77
2023/02/12 04:05:19;;;;;;;57.10;33.35;;;;;;;4.95;74.83;98585.97;5014736;28;20049;-77
2023/02/12 04:07:47;;;;;;;52.92;31.80;;;;;;;4.93;74.69;98591.25;5014576;28;20049;-77
2023/02/12 04:10:16;;;;;;;57.40;32.97;;;;;;;4.90;74.39;98590.63;5014728;28;20443;-77
2023/02/12 04:12:51;;;;;;;53.25;31.33;;;;;;;4.88;75.18;98593.31;5014750;28;20054;-77
2023/02/12 04:15:39;;;;;;;59.42;36.15;;;;;;;4.88;75.69;98603.66;5014544;28;20428;-77
2023/02/12 04:18:14;;;;;;;57.05;32.97;;;;;;;4.88;75.57;98598.47;5014070;28;20100;-77
2023/02/12 04:20:53;;;;;;;60.95;33.50;;;;;;;4.87;75.47;98593.38;5014728;28;20057;-77
2023/02/12 04:23:39;;;;;;;61.42;35.85;;;;;;;4.88;75.71;98598.47;5014623;28;20152;-77
2023/02/12 04:26:16;;;;;;;61.33;33.53;;;;;;;4.86;75.42;98604.66;5014273;28;20058;-77
2023/02/12 04:28:51;;;;;;;54.95;32.22;;;;;;;4.85;75.51;98609.00;5013983;28;20086;-77
2023/02/12 04:31:28;;;;;;;58.80;31.98;;;;;;;4.87;75.39;98611.50;5014650;28;20427;-77
2023/02/12 04:34:04;;;;;;;58.45;30.95;;;;;;;4.87;75.20;98612.31;5014521;28;20423;-77
2023/02/12 04:36:36;;;;;;;63.03;33.08;;;;;;;4.85;75.20;98614.16;5014822;28;20061;-76
2023/02/12 04:39:10;;;;;;;63.85;35.80;;;;;;;4.83;75.24;98610.88;5014347;28;20053;-77
2023/02/12 04:41:39;;;;;;;59.45;33.30;;;;;;;4.81;75.26;98612.72;5025516;28;20049;-77
2023/02/12 04:44:17;;;;;;;59.00;33.88;;;;;;;4.80;76.04;98605.88;5033863;28;20062;-77
2023/02/12 04:46:44;;;;;;;60.70;34.17;;;;;;;4.78;75.11;98612.06;5021106;28;20385;-77
2023/02/12 04:49:16;;;;;;;66.22;33.30;;;;;;;4.75;75.73;98608.75;5013943;28;20050;-77
2023/02/12 04:51:45;;;;;;;66.87;36.50;;;;;;;4.74;75.71;98606.25;5014690;28;20355;-77
2023/02/12 04:54:13;;;;;;;66.75;34.75;;;;;;;4.72;75.40;98605.50;5014517;28;20714;-77
2023/02/12 04:56:41;;;;;;;66.15;35.85;;;;;;;4.69;75.96;98603.94;5014488;28;20050;-76
2023/02/12 04:59:09;;;;;;;69.40;33.80;;;;;;;4.70;75.75;98602.19;5014110;28;20049;-77
2023/02/12 05:01:38;;;;;;;60.35;34.20;;;;;;;4.71;76.01;98598.69;5030687;28;20060;-77
2023/02/12 05:04:08;;;;;;;69.47;36.88;;;;;;;4.74;76.33;98606.25;5033546;28;20068;-76
2023/02/12 05:06:38;;;;;;;60.05;34.08;;;;;;;4.76;76.19;98609.56;5032969;28;20085;-77
2023/02/12 05:09:07;;;;;;;70.60;36.47;;;;;;;4.77;76.27;98603.50;5031631;28;20109;-77
2023/02/12 05:11:34;;;;;;;63.35;35.47;;;;;;;4.77;76.03;98611.25;5025955;28;20078;-77
2023/02/12 05:14:02;;;;;;;70.32;34.95;;;;;;;4.79;75.88;98609.41;5017092;28;20100;-77
2023/02/12 05:16:29;;;;;;;71.18;37.38;;;;;;;4.79;76.33;98608.53;5016977;28;20061;-77
2023/02/12 05:18:57;;;;;;;71.10;35.83;;;;;;;4.79;76.02;98608.53;5015900;28;20041;-77
2023/02/12 05:21:25;;;;;;;74.38;35.05;;;;;;;4.80;76.28;98605.88;5013596;28;20060;-77
2023/02/12 05:23:54;;;;;;;79.20;38.72;;;;;;;4.80;76.37;98610.22;5013694;28;20152;-77
2023/02/12 05:26:22;;;;;;;70.45;35.25;;;;;;;4.78;76.36;98606.91;5013461;28;20050;-77
2023/02/12 05:28:49;;;;;;;73.03;37.40;;;;;;;4.77;76.06;98605.22;5012914;28;20046;-77
2023/02/12 05:31:19;;;;;;;81.10;39.08;;;;;;;4.75;76.18;98607.94;5013613;28;20049;-77
2023/02/12 05:33:49;;;;;;;79.13;39.67;;;;;;;4.74;76.13;98612.28;5013425;28;20140;-77
2023/02/12 05:36:19;;;;;;;85.38;40.05;;;;;;;4.75;76.86;98611.34;5013182;28;20523;-77
2023/02/12 05:38:47;;;;;;;80.88;38.63;;;;;;;4.78;76.67;98606.91;5012715;28;20053;-77
2023/02/12 05:41:18;;;;;;;79.13;37.60;;;;;;;4.77;76.92;98611.25;5013277;28;20060;-77
2023/02/12 05:43:45;;;;;;;79.38;38.15;;;;;;;4.78;76.30;98610.31;5013578;28;20064;-77
2023/02/12 05:46:17;;;;;;;73.28;38.05;;;;;;;4.78;76.82;98620.66;5013538;28;20053;-77
2023/02/12 05:48:45;;;;;;;85.15;40.67;;;;;;;4.76;76.75;98614.75;5012784;28;20103;-77
2023/02/12 05:51:15;;;;;;;68.35;33.60;;;;;;;4.77;77.19;98619.00;5013643;28;20401;-76
2023/02/12 05:53:43;;;;;;;76.40;36.72;;;;;;;4.81;76.89;98623.06;5013285;28;20080;-77
2023/02/12 05:56:15;;;;;;;80.22;39.75;;;;;;;4.82;77.32;98619.53;5013243;28;20060;-77
2023/02/12 05:58:45;;;;;;;78.30;36.70;;;;;;;4.84;77.23;98619.44;5012269;28;20060;-77
2023/02/12 06:01:16;;;;;;;81.03;39.28;;;;;;;4.84;77.03;98612.50;5013187;28;20049;-77
2023/02/12 06:03:44;;;;;;;86.60;36.80;;;;;;;4.83;77.10;98613.47;5012810;28;20050;-77
2023/02/12 06:06:12;;;;;;;80.00;37.53;;;;;;;4.82;77.30;98608.38;5012833;28;20056;-77
2023/02/12 06:08:40;;;;;;;74.47;36.15;;;;;;;4.80;77.09;98616.22;5012626;28;20046;-77
2023/02/12 06:11:11;;;;;;;64.72;32.15;;;;;;;4.84;77.92;98609.94;5013183;28;20058;-77
2023/02/12 06:13:39;;;;;;;69.15;34.78;;;;;;;4.91;77.83;98616.38;5013050;28;20134;-77
2023/02/12 06:16:17;;;;;;;80.63;37.83;;;;;;;4.93;77.41;98617.09;5013106;28;20064;-76
2023/02/12 06:18:45;;;;;;;77.30;36.47;;;;;;;4.96;77.17;98621.25;5012590;28;20054;-77
2023/02/12 06:21:12;;;;;;;73.22;35.42;;;;;;;5.00;77.21;98624.47;5014649;28;20141;-77
2023/02/12 06:23:40;;;;;;;79.65;37.38;;;;;;;5.02;76.98;98617.47;5013888;28;20054;-77
2023/02/12 06:26:07;;;;;;;80.72;38.15;;;;;;;5.02;76.77;98617.47;5013963;28;20054;-77
2023/02/12 06:28:35;;;;;;;76.22;39.33;;;;;;;4.99;76.45;98615.09;5012526;28;20129;-77
2023/02/12 06:31:03;;;;;;;76.03;35.30;;;;;;;4.95;76.77;98617.84;5013496;28;20432;-77
2023/02/12 06:33:34;;;;;;;81.80;38.42;;;;;;;4.92;76.62;98618.03;5013351;28;20096;-77
2023/02/12 06:36:03;;;;;;;78.45;38.13;;;;;;;4.88;76.67;98623.50;5012597;28;20049;-77
2023/02/12 06:38:31;;;;;;;79.60;36.92;;;;;;;4.86;77.14;98631.34;5012260;28;20057;-77
2023/02/12 06:41:01;;;;;;;74.05;36.92;;;;;;;4.84;77.18;98622.88;5012680;28;20524;-77
2023/02/12 06:43:29;;;;;;;77.70;37.72;;;;;;;4.83;77.13;98618.63;5012812;28;20534;-77
2023/02/12 06:46:00;;;;;;;74.13;36.30;;;;;;;4.82;77.32;98627.28;5016460;28;20584;-77
2023/02/12 06:48:28;;;;;;;70.13;35.97;;;;;;;4.83;77.15;98628.97;5016034;28;20057;-78
2023/02/12 06:51:04;;;;;;;72.80;37.97;;;;;;;4.86;77.95;98630.53;5012236;28;20054;-79
2023/02/12 06:53:34;;;;;;;63.20;33.20;;;;;;;4.89;77.61;98632.91;5016332;28;20056;-79
2023/02/12 06:56:01;;;;;;;74.55;36.67;;;;;;;4.94;77.01;98633.44;5016526;28;20042;-79
2023/02/12 06:58:29;;;;;;;70.60;35.50;;;;;;;4.98;77.21;98634.09;5014434;28;20121;-80
2023/02/12 07:00:57;;;;;;;69.70;34.67;;;;;;;4.98;76.76;98631.50;5014427;28;20073;-78
2023/02/12 07:03:25;;;;;;;65.93;33.13;;;;;;;4.98;76.81;98637.50;5000347;28;20042;-78
2023/02/12 07:05:52;;;;;;;62.70;32.50;;;;;;;4.98;76.42;98641.84;5014747;28;20061;-79
2023/02/12 07:08:22;;;;;;;60.75;31.42;;;;;;;4.95;76.69;98642.88;5007879;28;20074;-79
2023/02/12 07:10:50;;;;;;;61.65;32.45;;;;;;;4.94;76.68;98641.19;5014927;28;20056;-78
2023/02/12 07:13:17;;;;;;;59.97;30.50;;;;;;;4.94;77.11;98642.06;5017917;28;20060;-77
2023/02/12 07:15:45;;;;;;;56.58;30.45;;;;;;;4.94;76.93;98642.06;5035808;28;20052;-79
2023/02/12 07:18:12;;;;;;;61.85;32.33;;;;;;;4.99;77.15;98635.78;5028944;28;20576;-78
2023/02/12 07:20:40;;;;;;;52.92;27.50;;;;;;;5.04;76.92;98636.31;4997693;28;20061;-78
2023/02/12 07:23:10;;;;;;;51.25;29.77;;;;;;;5.08;77.17;98637.78;4996481;28;20072;-77
2023/02/12 07:25:39;;;;;;;50.65;27.33;;;;;;;5.12;77.24;98636.66;5003143;28;20046;-79
2023/02/12 07:28:07;;;;;;;51.38;29.85;;;;;;;5.16;77.55;98638.13;5006377;28;20056;-79
2023/02/12 07:30:35;;;;;;;62.80;31.75;;;;;;;5.17;76.92;98644.94;5016134;28;20070;-78
2023/02/12 07:33:02;;;;;;;51.25;28.20;;;;;;;5.18;77.50;98638.81;5019739;28;20077;-79
2023/02/12 07:35:30;;;;;;;47.50;26.90;;;;;;;5.21;77.21;98636.06;5022600;28;20050;-78
2023/02/12 07:37:58;;;;;;;59.17;29.05;;;;;;;5.27;77.60;98640.00;5016259;28;20052;-79
2023/02/12 07:40:25;;;;;;;56.80;29.92;;;;;;;5.29;77.65;98639.00;5016283;28;20519;-79
2023/02/12 07:42:56;;;;;;;61.08;32.53;;;;;;;5.34;77.20;98641.28;5011040;28;20069;-78
2023/02/12 07:45:32;;;;;;;58.00;30.83;;;;;;;5.32;76.89;98641.38;5008453;28;20056;-78
2023/02/12 07:48:02;;;;;;;54.85;30.88;;;;;;;5.34;77.14;98644.69;4980185;28;20058;-78
2023/02/12 07:50:30;;;;;;;62.28;31.45;;;;;;;5.32;76.79;98648.31;4996858;28;20050;-78
2023/02/12 07:52:57;;;;;;;53.17;30.13;;;;;;;5.32;76.68;98643.13;4996338;28;20133;-79
2023/02/12 07:55:25;;;;;;;57.55;31.85;;;;;;;5.33;76.92;98644.78;5011362;28;20061;-79
2023/02/12 07:57:53;;;;;;;66.80;34.67;;;;;;;5.33;77.30;98642.19;5014613;28;20054;-79
2023/02/12 08:00:22;;;;;;;62.10;34.17;;;;;;;5.29;76.95;98644.16;5014736;28;20137;-80
2023/02/12 08:02:53;;;;;;;59.80;33.17;;;;;;;5.33;77.40;98649.97;5016463;28;20094;-81
2023/02/12 08:05:22;;;;;;;51.67;29.80;;;;;;;5.34;77.17;98647.28;5029200;22;20060;-80
2023/02/12 08:08:02;;;;;;;52.28;30.10;;;;;;;5.39;77.01;98643.56;5013541;28;20058;-80
2023/02/12 08:10:34;;;;;;;60.05;32.83;;;;;;;5.39;76.66;98644.41;5018055;28;20129;-80
2023/02/12 08:13:07;;;;;;;68.55;36.47;;;;;;;5.37;77.20;98654.03;5031683;28;20046;-80
2023/02/12 08:15:40;;;;;;;67.72;36.53;;;;;;;5.36;77.26;98653.19;5023599;28;20073;-80
2023/02/12 08:18:10;;;;;;;77.28;39.15;;;;;;;5.36;77.28;98655.78;5032439;28;20057;-80
2023/02/12 08:20:39;;;;;;;71.93;38.78;;;;;;;5.36;77.21;98650.59;5014151;28;20046;-80
2023/02/12 08:23:06;;;;;;;70.20;37.90;;;;;;;5.35;76.76;98648.09;5013169;28;20054;-80
2023/02/12 08:25:37;;;;;;;72.05;39.50;;;;;;;5.32;76.79;98649.13;5011095;28;20049;-80
2023/02/12 08:28:05;;;;;;;71.93;38.00;;;;;;;5.29;77.52;98651.09;5032392;28;20053;-81
2023/02/12 08:30:33;;;;;;;72.20;39.25;;;;;;;5.25;77.34;98658.22;5014393;28;20050;-79
2023/02/12 08:33:02;;;;;;;71.78;37.47;;;;;;;5.23;77.41;98659.25;5010782;28;20077;-80
2023/02/12 08:35:30;;;;;;;76.78;38.67;;;;;;;5.22;77.50;98653.22;5009854;28;20062;-79
2023/02/12 08:37:58;;;;;;;77.38;38.83;;;;;;;5.20;78.08;98660.25;5016248;28;20089;-80
2023/02/12 08:40:25;;;;;;;77.15;40.55;;;;;;;5.20;78.02;98662.03;5006144;28;20472;-80
2023/02/12 08:42:53;;;;;;;74.80;40.35;;;;;;;5.20;78.11;98659.44;5014579;28;20116;-82
2023/02/12 08:45:21;;;;;;;79.05;39.22;;;;;;;5.20;78.23;98660.25;5012209;28;20071;-79
2023/02/12 08:47:48;;;;;;;71.20;35.55;;;;;;;5.20;77.90;98662.84;5027904;28;20088;-79
2023/02/12 08:50:17;;;;;;;77.22;39.58;;;;;;;5.20;78.23;98662.03;5025182;28;20050;-79
2023/02/12 08:52:45;;;;;;;80.07;38.90;;;;;;;5.21;78.27;98661.94;5026869;28;20061;-79
2023/02/12 08:55:13;;;;;;;68.70;36.05;;;;;;;5.22;78.33;98653.22;5026821;28;20050;-80
2023/02/12 08:57:42;;;;;;;67.85;36.25;;;;;;;5.24;78.39;98656.56;5012232;28;20110;-80
2023/02/12 09:00:10;;;;;;;68.50;35.08;;;;;;;5.27;78.28;98651.19;5000886;28;20138;-79
2023/02/12 09:02:39;;;;;;;66.75;34.17;;;;;;;5.33;78.25;98660.31;5027408;28;20050;-80
2023/02/12 09:05:07;;;;;;;61.03;34.15;;;;;;;5.36;78.07;98666.13;5027308;28;20435;-79
2023/02/12 09:07:36;;;;;;;61.72;31.80;;;;;;;5.39;78.00;98670.28;4987394;28;20043;-80
2023/02/12 09:10:05;;;;;;;61.28;32.88;;;;;;;5.42;78.11;98657.13;5015824;28;20048;-79
2023/02/12 09:12:32;;;;;;;60.40;31.90;;;;;;;5.45;78.04;98669.06;5014807;28;20595;-80
2023/02/12 09:15:00;;;;;;;64.22;34.50;;;;;;;5.47;78.10;98662.03;5014296;28;20065;-78
2023/02/12 09:17:29;;;;;;;63.03;32.65;;;;;;;5.49;77.52;98655.00;5030786;28;20074;-80
2023/02/12 09:19:57;;;;;;;59.13;32.55;;;;;;;5.50;77.89;98657.47;5027059;28;20050;-80
2023/02/12 09:22:24;;;;;;;56.20;32.78;;;;;;;5.53;77.58;98661.63;5023764;28;20110;-80
2023/02/12 09:24:53;;;;;;;57.08;30.67;;;;;;;5.56;77.62;98657.09;5001754;28;20129;-79
2023/02/12 09:27:21;;;;;;;58.70;31.50;;;;;;;5.61;78.00;98659.38;5007273;28;20050;-80
2023/02/12 09:29:49;;;;;;;47.58;28.75;;;;;;;5.66;78.13;98657.31;5006879;28;20555;-80
2023/02/12 09:32:16;;;;;;;60.85;32.38;;;;;;;5.72;78.03;98662.09;5017212;28;20054;-80
2023/02/12 09:34:44;;;;;;;56.83;31.20;;;;;;;5.80;78.24;98658.19;5002267;28;20137;-80
2023/02/12 09:37:11;;;;;;;57.97;31.75;;;;;;;5.85;77.82;98656.09;4997877;28;20046;-80
2023/02/12 09:39:39;;;;;;;60.25;33.50;;;;;;;5.88;77.47;98661.06;5013311;28;20057;-83
2023/02/12 09:42:21;;;;;;;55.78;30.48;;;;;;;5.92;77.97;98657.34;5015932;28;20577;-80
2023/02/12 09:45:01;;;;;;;51.25;28.00;;;;;;;5.97;77.94;98652.75;5014762;28;20141;-80
2023/02/12 09:47:38;;;;;;;49.47;28.27;;;;;;;6.04;77.56;98661.75;5019947;28;20046;-80
2023/02/12 09:50:22;;;;;;;49.38;28.38;;;;;;;6.10;77.84;98650.13;5028493;28;20066;-80
2023/02/12 09:52:51;;;;;;;43.45;23.95;;;;;;;6.14;77.57;98654.19;5006835;28;20054;-81
2023/02/12 09:55:19;;;;;;;40.47;22.23;;;;;;;6.19;77.41;98652.97;5026016;28;20117;-80
2023/02/12 09:57:49;;;;;;;30.77;17.63;;;;;;;6.26;76.62;98660.31;5017707;28;20050;-80
2023/02/12 10:00:26;;;;;;;22.75;13.30;;;;;;;6.31;76.51;98659.06;5022292;28;20054;-80
2023/02/12 10:02:56;;;;;;;26.33;16.33;;;;;;;6.36;76.81;98661.34;5027302;28;20049;-80
2023/02/12 10:05:37;;;;;;;20.42;11.32;;;;;;;6.40;77.51;98666.22;5032957;28;20088;-82
2023/02/12 10:08:51;;;;;;;12.10;6.47;;;;;;;6.47;76.98;98666.66;5000770;28;20057;-83
2023/02/12 10:20:00;;;;;;;3.27;2.57;;;;;;;6.65;74.98;98666.28;5468827;22;20041;-83
2023/02/12 10:22:51;;;;;;;3.60;2.47;;;;;;;6.67;74.81;98670.47;5040611;28;20046;-83
2023/02/12 10:28:19;;;;;;;2.75;2.22;;;;;;;6.74;74.62;98673.44;5044162;28;20551;-83
2023/02/12 10:30:56;;;;;;;2.63;2.28;;;;;;;6.77;74.53;98673.22;5038991;28;20109;-83
2023/02/12 10:33:31;;;;;;;2.17;1.85;;;;;;;6.78;74.58;98667.94;5035831;28;20081;-83
2023/02/12 10:36:20;;;;;;;2.50;1.85;;;;;;;6.81;74.90;98672.09;5022398;28;20037;-82
2023/02/12 10:46:50;;;;;;;1.73;1.20;;;;;;;6.76;73.60;98669.00;5035585;28;20033;-84
2023/02/12 10:49:21;;;;;;;1.98;1.60;;;;;;;6.74;73.58;98668.25;5120488;22;20073;-83
2023/02/12 10:52:01;;;;;;;1.58;1.40;;;;;;;6.74;73.78;98670.84;5041371;28;20069;-85
2023/02/12 10:54:40;;;;;;;2.05;0.98;;;;;;;6.77;74.48;98671.44;5133632;22;20037;-83
2023/02/12 10:57:29;;;;;;;2.65;1.80;;;;;;;6.80;73.86;98665.25;5165753;27;20755;-80
2023/02/12 11:00:15;;;;;;;2.47;1.67;;;;;;;6.82;73.72;98658.16;5061211;28;20046;-80
2023/02/12 11:03:01;;;;;;;2.50;1.55;;;;;;;6.88;74.28;98659.50;5045873;28;20598;-81
2023/02/12 11:05:31;;;;;;;3.85;1.88;;;;;;;6.89;73.33;98656.81;5063872;28;20049;-80
2023/02/12 11:08:01;;;;;;;1.63;1.25;;;;;;;6.91;73.93;98654.94;5062147;28;20068;-80
2023/02/12 11:10:31;;;;;;;1.77;1.52;;;;;;;6.94;73.62;98659.91;5063646;27;20080;-81
2023/02/12 11:13:01;;;;;;;4.47;2.58;;;;;;;6.96;73.17;98650.25;5063058;28;20072;-80
2023/02/12 11:15:37;;;;;;;4.90;2.60;;;;;;;6.97;73.19;98651.91;5063020;28;20142;-80
2023/02/12 11:18:09;;;;;;;3.25;2.20;;;;;;;7.00;73.21;98656.88;5063945;28;20064;-80
2023/02/12 11:20:39;;;;;;;;;;;;;;;7.01;73.29;98653.34;5068632;27;20048;-81
2023/02/12 11:23:25;;;;;;;2.25;1.92;;;;;;;7.03;73.12;98649.81;5062553;28;19921;-81
2023/02/12 11:26:01;;;;;;;1.73;1.50;;;;;;;6.99;72.88;98646.59;5065425;28;20049;-81
2023/02/12 11:28:38;;;;;;;1.95;1.65;;;;;;;6.98;73.19;98647.56;5051154;28;20109;-81
2023/02/12 11:31:22;;;;;;;1.50;1.40;;;;;;;7.00;73.07;98646.50;5053969;28;20041;-80
2023/02/12 11:34:08;;;;;;;1.83;1.42;;;;;;;7.04;72.96;98644.53;5064680;28;20047;-80
2023/02/12 11:36:42;;;;;;;1.88;1.58;;;;;;;7.03;72.50;98642.03;5057457;28;20070;-81
2023/02/12 11:39:21;;;;;;;4.20;2.30;;;;;;;7.06;73.28;98644.41;5151933;27;20047;-81
2023/02/12 12:41:08;;;;;;;5.70;3.47;;;;;;;7.20;71.82;98624.31;5094071;28;20044;-82
2023/02/12 12:43:48;;;;;;;4.57;3.17;;;;;;;7.23;71.79;98620.66;5080135;28;20032;-83
2023/02/12 14:26:54;;;;;;;5.38;3.40;;;;;;;9.04;66.08;98554.88;1500706;22;20283;-79
2023/02/12 14:41:43;;;;;;;;;;;;;;;9.36;65.40;98548.84;5293325;22;20057;-81
2023/02/12 14:44:46;;;;;;;6.50;4.10;;;;;;;9.35;64.63;98541.94;5076757;28;19931;-81
2023/02/12 14:47:29;;;;;;;7.50;4.60;;;;;;;9.37;64.88;98539.22;5062627;22;20788;-81
2023/02/12 14:50:01;;;;;;;11.52;6.50;;;;;;;9.38;64.45;98539.13;5044776;28;20127;-80
2023/02/12 14:52:36;;;;;;;10.30;6.38;;;;;;;9.39;64.18;98532.94;5058795;28;20060;-81
2023/02/12 14:55:18;;;;;;;10.15;5.70;;;;;;;9.43;64.44;98539.56;5068870;22;20148;-79
2023/02/12 14:57:46;;;;;;;10.68;5.72;;;;;;;9.47;64.42;98535.75;5051795;28;20629;-78
2023/02/12 15:00:23;;;;;;;9.95;6.43;;;;;;;9.51;63.76;98549.34;5053995;28;20055;-79